Latest Weather Observations for Green Cape

IDN60801

Issued at 9:02 am EST Tuesday 30 June 2015 (issued every 30 minutes, with the page automatically refreshed every 10 minutes)

About weather observations | Map of weather stations | Latest weather observations for NSW | Other Formats
Station Details ID: 069137 Name: GREEN CAPE AWS Lat: -37.26 Lon: 150.05 Height: 19.4 m
Data from the previous 72 hours. | See also: Recent months at Green Cape
Date/Time
EST
Temp
°C
App
Temp
°C
Dew
Point
Rel
Hum
%
Delta-T
°C
Wind Press
QNH
hPa
Press
MSL
hPa
Rain
since 9 am
mm
Dir
 
Spd
km/h
Gust
km/h
Spd
kts
Gust
kts
30/09:00am 10.9 6.1 9.0 88 0.9 W 24 28 13 15 1027.4 1027.4 0.0
30/08:30am 10.4 5.2 8.7 89 0.8 W 26 32 14 17 1027.5 1027.5 0.0
30/08:00am 10.4 6.0 9.0 91 0.7 W 22 26 12 14 1027.5 1027.5 0.0
30/07:30am 10.4 6.3 8.8 90 0.8 W 20 24 11 13 1027.6 1027.6 0.0
30/07:00am 10.3 4.7 8.9 91 0.7 W 28 32 15 17 1027.7 1027.7 0.0
30/06:30am 10.6 6.6 9.2 91 0.7 W 20 26 11 14 1027.6 1027.6 0.0
30/06:00am 10.5 6.5 9.1 91 0.7 W 20 26 11 14 1027.5 1027.5 0.0
30/05:30am 11.1 8.2 9.5 90 0.8 WSW 15 19 8 10 1027.2 1027.2 0.0
30/05:00am 11.3 8.4 9.6 89 0.9 WSW 15 19 8 10 1027.1 1027.1 0.0
30/04:30am 11.4 8.5 9.7 89 0.9 WSW 15 19 8 10 1027.2 1027.2 0.0
30/04:00am 11.3 8.0 9.4 88 0.9 W 17 20 9 11 1027.6 1027.6 0.0
30/03:30am 11.4 8.1 9.5 88 1.0 W 17 20 9 11 1027.7 1027.7 0.0
30/03:00am 11.4 7.7 9.5 88 1.0 W 19 22 10 12 1028.1 1028.1 0.0
30/02:30am 11.4 8.1 9.5 88 1.0 W 17 19 9 10 1028.1 1028.1 0.0
30/02:00am 11.6 8.4 9.9 89 0.9 W 17 20 9 11 1028.3 1028.3 0.0
30/01:30am 11.5 8.3 9.8 89 0.9 W 17 19 9 10 1028.3 1028.3 0.0
30/01:00am 11.3 8.4 9.7 90 0.8 W 15 19 8 10 1028.5 1028.5 0.0
30/12:30am 11.3 8.5 9.9 91 0.7 W 15 17 8 9 1028.7 1028.7 0.0
30/12:00am 11.1 8.6 9.7 91 0.7 W 13 17 7 9 1029.0 1029.0 0.0
 
Date/Time
EST
Temp
°C
App
Temp
°C
Dew
Point
Rel
Hum
%
Delta-T
°C
Wind Press
QNH
hPa
Press
MSL
hPa
Rain
since 9 am
mm
Dir
 
Spd
km/h
Gust
km/h
Spd
kts
Gust
kts
29/11:30pm 11.1 8.6 9.7 91 0.7 W 13 15 7 8 1029.3 1029.3 0.0
29/11:00pm 11.0 8.4 9.4 90 0.8 W 13 13 7 7 1029.5 1029.5 0.0
29/10:30pm 11.1 8.5 9.5 90 0.8 W 13 15 7 8 1029.9 1029.9 0.0
29/10:00pm 11.3 8.4 9.6 89 0.9 W 15 19 8 10 1030.2 1030.2 0.0
29/09:30pm 11.9 9.4 9.8 87 1.1 W 13 15 7 8 1030.4 1030.4 0.0
29/09:00pm 12.5 10.8 9.7 83 1.4 S 9 11 5 6 1030.6 1030.6 0.0
29/08:30pm 12.6 10.9 9.8 83 1.4 S 9 11 5 6 1030.9 1030.9 0.0
29/08:00pm 12.5 10.8 9.9 84 1.3 SW 9 13 5 7 1031.1 1031.1 0.0
29/07:30pm 12.8 11.0 9.6 81 1.6 SW 9 13 5 7 1031.2 1031.2 0.0
29/07:00pm 13.0 11.3 9.8 81 1.6 SSW 9 13 5 7 1031.0 1031.0 0.0
29/06:30pm 12.7 11.3 9.5 81 1.6 S 7 9 4 5 1030.7 1030.7 0.0
29/06:00pm 12.6 10.7 9.1 79 1.7 S 9 15 5 8 1030.6 1030.6 0.0
29/05:30pm 12.7 11.1 8.8 77 2.0 SSE 7 9 4 5 1030.4 1030.4 0.0
29/05:00pm 13.1 11.6 9.0 76 2.1 SE 7 11 4 6 1030.4 1030.4 0.0
29/04:30pm 13.6 12.2 8.9 73 2.4 ESE 6 9 3 5 1030.6 1030.6 0.0
29/04:00pm 14.4 12.9 9.0 70 2.7 SE 7 9 4 5 1030.5 1030.5 0.0
29/03:30pm 14.4 12.4 8.8 69 2.8 SE 9 11 5 6 1030.3 1030.3 0.0
29/03:00pm 15.8 14.0 9.5 66 3.2 SE 9 13 5 7 1030.1 1030.1 0.0
29/02:30pm 16.1 14.6 9.3 64 3.5 SE 7 9 4 5 1030.1 1030.1 0.0
29/02:00pm 16.3 15.0 9.3 63 3.6 SSE 6 9 3 5 1030.4 1030.4 0.0
29/01:30pm 15.9 14.5 9.6 66 3.3 SSE 7 9 4 5 1030.6 1030.6 0.0
29/01:00pm 14.4 12.9 8.6 68 2.9 SSW 6 7 3 4 1030.8 1030.8 0.0
29/12:30pm 13.9 12.1 8.1 68 2.9 WSW 7 9 4 5 1031.2 1031.2 0.0
29/12:00pm 13.3 11.1 8.0 70 2.6 W 9 11 5 6 1031.7 1031.7 0.0
29/11:30am 12.6 9.6 7.7 72 2.4 W 13 15 7 8 1032.2 1032.2 0.0
29/11:00am 12.2 8.4 7.5 73 2.3 W 17 19 9 10 1032.7 1032.7 0.0
29/10:30am 11.4 7.1 6.9 74 2.1 W 19 20 10 11 1033.1 1033.1 0.0
29/10:00am 11.1 6.6 6.8 75 2.0 W 20 24 11 13 1033.3 1033.3 0.0
29/09:30am 10.8 5.9 6.7 76 1.9 W 22 24 12 13 1033.4 1033.4 0.0
29/09:00am 10.5 5.6 6.8 78 1.7 W 22 26 12 14 1033.3 1033.3 0.0
29/08:30am 10.0 5.4 6.7 80 1.5 W 20 26 11 14 1033.2 1033.2 0.0
29/08:00am 9.5 4.2 6.6 82 1.3 W 24 26 13 14 1033.0 1033.0 0.0
29/07:30am 9.3 4.0 6.7 84 1.2 W 24 28 13 15 1032.8 1032.8 0.0
29/07:00am 9.3 4.0 6.7 84 1.2 W 24 30 13 16 1032.7 1032.7 0.0
29/06:30am 9.3 4.4 6.9 85 1.1 W 22 28 12 15 1032.8 1032.8 0.0
29/06:00am 9.4 4.1 6.8 84 1.2 W 24 30 13 16 1032.6 1032.6 0.0
29/05:30am 9.6 5.1 7.0 84 1.2 W 20 24 11 13 1032.5 1032.5 0.0
29/05:00am 10.0 5.2 7.4 84 1.2 W 22 26 12 14 1032.4 1032.4 0.0
29/04:30am 10.0 4.8 7.4 84 1.2 W 24 28 13 15 1032.2 1032.2 0.0
29/04:00am 9.9 5.1 7.3 84 1.2 W 22 26 12 14 1032.4 1032.4 0.0
29/03:30am 10.0 5.8 7.3 83 1.3 W 19 22 10 12 1032.5 1032.5 0.0
29/03:00am 10.2 5.8 7.6 84 1.2 W 20 26 11 14 1032.6 1032.6 0.0
29/02:30am 10.4 6.1 7.8 84 1.3 W 20 26 11 14 1032.6 1032.6 0.0
29/02:00am 10.8 6.2 8.0 83 1.3 W 22 26 12 14 1032.5 1032.5 0.0
29/01:30am 10.9 6.7 8.3 84 1.3 W 20 26 11 14 1032.5 1032.5 0.0
29/01:00am 10.7 6.5 8.3 85 1.2 W 20 24 11 13 1032.4 1032.4 0.0
29/12:30am 10.7 6.5 8.1 84 1.3 W 20 22 11 12 1032.4 1032.4 0.0
29/12:00am 10.8 6.6 8.2 84 1.3 W 20 22 11 12 1032.6 1032.6 0.0
 
Date/Time
EST
Temp
°C
App
Temp
°C
Dew
Point
Rel
Hum
%
Delta-T
°C
Wind Press
QNH
hPa
Press
MSL
hPa
Rain
since 9 am
mm
Dir
 
Spd
km/h
Gust
km/h
Spd
kts
Gust
kts
28/11:30pm 10.9 6.9 8.3 84 1.3 W 19 22 10 12 1032.8 1032.8 0.0
28/11:00pm 11.2 8.0 8.6 84 1.3 W 15 20 8 11 1032.9 1032.9 0.0
28/10:30pm 11.4 7.5 8.6 83 1.4 W 19 22 10 12 1032.9 1032.9 0.0
28/10:00pm 11.5 7.9 8.5 82 1.5 W 17 20 9 11 1033.1 1033.1 0.0
28/09:30pm 12.0 8.1 8.8 81 1.6 WSW 19 24 10 13 1033.2 1033.2 0.0
28/09:00pm 12.2 7.8 8.9 80 1.6 WSW 22 28 12 15 1033.0 1033.0 0.0
28/08:30pm 12.3 7.9 8.8 79 1.7 WSW 22 26 12 14 1032.9 1032.9 0.0
28/08:00pm 12.2 8.6 8.5 78 1.8 SW 17 20 9 11 1032.9 1032.9 0.0
28/07:30pm 12.2 8.5 8.1 76 2.0 WSW 17 20 9 11 1032.8 1032.8 0.0
28/07:00pm 12.5 8.2 8.0 74 2.2 WSW 20 24 11 13 1032.6 1032.6 0.0
28/06:30pm 12.7 9.5 8.4 75 2.1 WSW 15 20 8 11 1032.3 1032.3 0.0
28/06:00pm 13.2 9.7 8.9 75 2.1 SW 17 20 9 11 1032.1 1032.1 0.0
28/05:30pm 13.3 8.9 9.0 75 2.2 SSW 22 24 12 13 1031.7 1031.7 0.0
28/05:00pm 13.7 9.7 9.0 73 2.4 SW 20 24 11 13 1031.6 1031.6 0.0
28/04:30pm 14.3 10.8 8.9 70 2.7 SW 17 20 9 11 1031.4 1031.4 0.0
28/04:00pm 14.8 11.1 9.4 70 2.8 SSW 19 22 10 12 1031.2 1031.2 0.0
28/03:30pm 15.0 11.8 8.5 65 3.3 SW 15 20 8 11 1031.1 1031.1 0.0
28/03:00pm 14.9 11.4 8.8 67 3.1 SW 17 20 9 11 1030.9 1030.9 0.0
28/02:30pm 14.9 11.0 8.8 67 3.1 SW 19 22 10 12 1030.8 1030.8 0.0
28/02:00pm 15.1 12.8 9.0 67 3.1 SSW 11 20 6 11 1030.7 1030.7 0.0
28/01:30pm 16.1 16.0 9.3 64 3.5 CALM 0 0 0 0 1031.0 1031.0 0.0
28/01:00pm 15.9 14.9 8.9 63 3.6 WNW 4 6 2 3 1031.2 1031.2 0.0
28/12:30pm 15.6 14.0 8.8 64 3.5 WNW 7 11 4 6 1031.3 1031.3 0.0
28/12:00pm 14.9 12.5 8.6 66 3.2 WNW 11 15 6 8 1031.8 1031.8 0.0
28/11:30am 13.7 10.4 7.9 68 2.9 W 15 17 8 9 1032.1 1032.1 0.0
28/11:00am 13.2 9.5 7.9 70 2.6 WNW 17 20 9 11 1032.5 1032.5 0.0
28/10:30am 12.6 8.5 7.9 73 2.3 W 19 22 10 12 1032.7 1032.7 0.0
28/10:00am 12.0 7.6 7.5 74 2.2 W 20 26 11 14 1032.7 1032.7 0.0
28/09:30am 11.3 5.8 7.6 78 1.8 W 26 30 14 16 1032.3 1032.3 0.0
28/09:00am 10.4 4.7 6.9 79 1.6 WNW 26 30 14 16 1032.4 1032.4 0.0
28/08:30am 10.1 3.8 7.5 84 1.2 W 30 32 16 17 1032.3 1032.3 0.0
28/08:00am 9.8 3.8 7.2 84 1.2 W 28 30 15 16 1032.1 1032.1 0.0
28/07:30am 9.5 3.8 6.8 83 1.3 W 26 30 14 16 1032.0 1032.0 0.0
28/07:00am 9.0 6.1 6.4 84 1.2 WNW 11 17 6 9 1031.8 1031.8 0.0
28/06:30am 9.1 7.0 6.7 85 1.1 WNW 7 11 4 6 1031.6 1031.6 0.0
28/06:00am 9.1 7.2 6.7 85 1.1 NW 6 9 3 5 1031.3 1031.3 0.0
28/05:30am 8.9 7.0 6.5 85 1.1 N 6 9 3 5 1031.1 1031.1 0.0
28/05:00am 9.2 7.7 6.6 84 1.2 N 4 7 2 4 1030.8 1030.8 0.0
28/04:30am 9.2 7.3 6.6 84 1.2 NNW 6 9 3 5 1030.5 1030.5 0.0
28/04:00am 9.1 7.2 6.9 86 1.0 NNW 6 9 3 5 1030.4 1030.4 0.0
28/03:30am 9.5 8.9 7.4 87 1.0 CALM 0 2 0 1 1030.6 1030.6 0.0
28/03:00am 9.8 7.2 7.9 88 0.9 WNW 11 15 6 8 1030.6 1030.6 0.0
28/02:30am 10.0 7.1 8.3 89 0.8 WNW 13 19 7 10 1030.7 1030.7 0.0
28/02:00am 10.4 7.5 8.3 87 1.0 WNW 13 17 7 9 1030.7 1030.7 0.0
28/01:30am 10.6 7.7 8.0 84 1.3 WNW 13 17 7 9 1030.8 1030.8 0.0
28/01:00am 11.2 7.4 7.5 78 1.8 W 17 20 9 11 1030.8 1030.8 0.0
28/12:30am 10.8 8.0 7.1 78 1.8 WNW 11 15 6 8 1030.9 1030.9 0.0
28/12:00am 10.8 7.8 7.7 81 1.5 WNW 13 15 7 8 1031.1 1031.1 0.0
 
Date/Time
EST
Temp
°C
App
Temp
°C
Dew
Point
Rel
Hum
%
Delta-T
°C
Wind Press
QNH
hPa
Press
MSL
hPa
Rain
since 9 am
mm
Dir
 
Spd
km/h
Gust
km/h
Spd
kts
Gust
kts
27/11:30pm 11.1 8.1 7.6 79 1.7 WNW 13 17 7 9 1031.3 1031.3 0.0
27/11:00pm 11.6 8.6 7.9 78 1.8 W 13 19 7 10 1031.3 1031.3 0.0
27/10:30pm 11.0 7.5 7.1 77 1.9 WNW 15 19 8 10 1031.2 1031.2 0.0
27/10:00pm 11.3 7.9 7.6 78 1.8 WNW 15 20 8 11 1031.3 1031.3 0.0
27/09:30pm 11.4 7.9 7.3 76 2.0 WNW 15 19 8 10 1031.3 1031.3 0.0
27/09:00pm 11.7 9.0 7.4 75 2.1 WNW 11 19 6 10 1031.2 1031.2 0.0
27/08:30pm 12.2 8.5 7.9 75 2.1 WSW 17 20 9 11 1031.3 1031.3 0.0
27/08:00pm 12.1 9.0 8.8 80 1.6 W 15 19 8 10 1031.2 1031.2 0.0
27/07:30pm 12.2 8.8 9.0 81 1.6 W 17 19 9 10 1030.8 1030.8 0.0
27/07:00pm 13.0 8.4 8.3 73 2.3 SW 22 24 12 13 1030.4 1030.4 0.0
27/06:30pm 12.9 9.3 8.4 74 2.2 SW 17 24 9 13 1030.1 1030.1 0.0
27/06:00pm 13.2 10.9 9.1 76 2.1 SW 11 13 6 7 1029.8 1029.8 0.0
27/05:30pm 13.3 11.1 7.7 69 2.8 SW 9 11 5 6 1029.7 1029.7 0.0
27/05:00pm 13.3 11.1 8.0 70 2.6 SW 9 13 5 7 1029.4 1029.4 0.0
27/04:30pm 13.7 11.2 8.1 69 2.8 SW 11 15 6 8 1029.4 1029.4 0.0
27/04:00pm 14.0 11.2 8.4 69 2.8 SSW 13 17 7 9 1029.4 1029.4 0.0
27/03:30pm 13.8 10.9 8.2 69 2.8 SSW 13 17 7 9 1029.5 1029.5 0.0
27/03:00pm 14.6 12.2 8.5 67 3.1 SSW 11 15 6 8 1029.4 1029.4 0.0
27/02:30pm 14.7 12.7 8.6 67 3.1 SSW 9 15 5 8 1029.4 1029.4 0.0
27/02:00pm 14.4 11.1 8.1 66 3.1 SSW 15 22 8 12 1029.3 1029.3 0.0
27/01:30pm 14.4 11.1 8.1 66 3.1 SSW 15 20 8 11 1029.5 1029.5 0.0
27/01:00pm 14.0 10.2 7.5 65 3.2 SSW 17 20 9 11 1029.7 1029.7 0.0
27/12:30pm 14.0 10.3 7.8 66 3.1 SW 17 22 9 12 1030.2 1030.2 0.0
27/12:00pm 13.6 9.4 7.6 67 2.9 SW 19 24 10 13 1030.5 1030.5 0.0
27/11:30am 13.2 8.4 7.4 68 2.8 WSW 22 28 12 15 1031.0 1031.0 0.0
27/11:00am 13.2 8.6 8.1 71 2.5 WSW 22 28 12 15 1031.5 1031.5 0.0
27/10:30am 12.7 8.3 8.8 77 2.0 W 22 28 12 15 1031.8 1031.8 0.0
27/10:00am 12.0 7.2 8.7 80 1.6 W 24 28 13 15 1032.0 1032.0 0.0
27/09:30am 11.3 6.0 8.3 82 1.5 W 26 30 14 16 1031.8 1031.8 0.0

Other Formats:

Comma delimited format used in spreadsheet applications
http://www.bom.gov.au/fwo/IDN60801/IDN60801.94934.axf

JavaScript Object Notation format (JSON) in row-major order
http://www.bom.gov.au/fwo/IDN60801/IDN60801.94934.json